sensor_id;sensor_type;location;lat;lon;timestamp;P1;durP1;ratioP1;P2;durP2;ratioP2
20241;SDS011;10279;46.388;8.116;2023-03-19T00:01:55;5.00;;;3.57;;
20241;SDS011;10279;46.388;8.116;2023-03-19T00:04:31;4.77;;;3.57;;
20241;SDS011;10279;46.388;8.116;2023-03-19T00:06:58;5.93;;;3.33;;
20241;SDS011;10279;46.388;8.116;2023-03-19T00:09:26;4.23;;;3.43;;
20241;SDS011;10279;46.388;8.116;2023-03-19T00:11:54;5.27;;;3.40;;
20241;SDS011;10279;46.388;8.116;2023-03-19T00:14:23;4.53;;;3.37;;
20241;SDS011;10279;46.388;8.116;2023-03-19T00:16:51;3.53;;;3.13;;
20241;SDS011;10279;46.388;8.116;2023-03-19T00:19:18;5.53;;;3.50;;
20241;SDS011;10279;46.388;8.116;2023-03-19T00:21:46;5.40;;;3.53;;
20241;SDS011;10279;46.388;8.116;2023-03-19T00:24:14;4.73;;;3.40;;
20241;SDS011;10279;46.388;8.116;2023-03-19T00:26:42;3.53;;;2.97;;
20241;SDS011;10279;46.388;8.116;2023-03-19T00:29:10;5.93;;;3.20;;
20241;SDS011;10279;46.388;8.116;2023-03-19T00:31:38;4.87;;;3.20;;
20241;SDS011;10279;46.388;8.116;2023-03-19T00:34:07;5.20;;;3.50;;
20241;SDS011;10279;46.388;8.116;2023-03-19T00:36:35;4.27;;;3.00;;
20241;SDS011;10279;46.388;8.116;2023-03-19T00:39:03;4.87;;;3.83;;
20241;SDS011;10279;46.388;8.116;2023-03-19T00:41:30;7.60;;;4.13;;
20241;SDS011;10279;46.388;8.116;2023-03-19T00:43:59;4.80;;;3.40;;
20241;SDS011;10279;46.388;8.116;2023-03-19T00:46:26;6.40;;;4.03;;
20241;SDS011;10279;46.388;8.116;2023-03-19T00:48:54;4.40;;;3.40;;
20241;SDS011;10279;46.388;8.116;2023-03-19T00:51:22;4.00;;;2.90;;
20241;SDS011;10279;46.388;8.116;2023-03-19T00:53:49;4.70;;;3.33;;
20241;SDS011;10279;46.388;8.116;2023-03-19T00:56:18;7.17;;;3.70;;
20241;SDS011;10279;46.388;8.116;2023-03-19T00:58:45;5.43;;;3.50;;
20241;SDS011;10279;46.388;8.116;2023-03-19T01:01:14;6.37;;;4.03;;
20241;SDS011;10279;46.388;8.116;2023-03-19T01:03:42;4.30;;;3.60;;
20241;SDS011;10279;46.388;8.116;2023-03-19T01:06:10;7.70;;;4.37;;
20241;SDS011;10279;46.388;8.116;2023-03-19T01:08:38;7.30;;;3.83;;
20241;SDS011;10279;46.388;8.116;2023-03-19T01:11:07;4.93;;;3.40;;
20241;SDS011;10279;46.388;8.116;2023-03-19T01:13:34;5.47;;;3.70;;
20241;SDS011;10279;46.388;8.116;2023-03-19T01:16:02;6.47;;;3.87;;
20241;SDS011;10279;46.388;8.116;2023-03-19T01:18:29;7.27;;;4.00;;
20241;SDS011;10279;46.388;8.116;2023-03-19T01:20:57;7.00;;;4.30;;
20241;SDS011;10279;46.388;8.116;2023-03-19T01:23:24;5.13;;;4.10;;
20241;SDS011;10279;46.388;8.116;2023-03-19T01:25:52;4.60;;;3.60;;
20241;SDS011;10279;46.388;8.116;2023-03-19T01:28:19;5.50;;;4.10;;
20241;SDS011;10279;46.388;8.116;2023-03-19T01:30:47;5.20;;;3.97;;
20241;SDS011;10279;46.388;8.116;2023-03-19T01:33:15;4.47;;;3.23;;
20241;SDS011;10279;46.388;8.116;2023-03-19T01:35:44;4.83;;;3.43;;
20241;SDS011;10279;46.388;8.116;2023-03-19T01:38:13;5.80;;;4.07;;
20241;SDS011;10279;46.388;8.116;2023-03-19T01:40:47;6.00;;;3.57;;
20241;SDS011;10279;46.388;8.116;2023-03-19T01:45:43;5.37;;;4.00;;
20241;SDS011;10279;46.388;8.116;2023-03-19T01:50:50;4.63;;;3.33;;
20241;SDS011;10279;46.388;8.116;2023-03-19T01:53:25;4.77;;;3.53;;
20241;SDS011;10279;46.388;8.116;2023-03-19T01:55:55;6.57;;;4.30;;
20241;SDS011;10279;46.388;8.116;2023-03-19T01:58:23;6.67;;;4.50;;
20241;SDS011;10279;46.388;8.116;2023-03-19T02:00:52;6.97;;;4.27;;
20241;SDS011;10279;46.388;8.116;2023-03-19T02:03:19;7.43;;;4.63;;
20241;SDS011;10279;46.388;8.116;2023-03-19T02:05:48;6.13;;;4.13;;
20241;SDS011;10279;46.388;8.116;2023-03-19T02:08:16;7.70;;;4.80;;
20241;SDS011;10279;46.388;8.116;2023-03-19T02:10:45;7.00;;;4.57;;
20241;SDS011;10279;46.388;8.116;2023-03-19T02:13:14;7.53;;;4.43;;
20241;SDS011;10279;46.388;8.116;2023-03-19T02:15:42;5.63;;;3.90;;
20241;SDS011;10279;46.388;8.116;2023-03-19T02:18:09;6.30;;;4.60;;
20241;SDS011;10279;46.388;8.116;2023-03-19T02:20:45;6.33;;;4.30;;
20241;SDS011;10279;46.388;8.116;2023-03-19T02:28:13;5.17;;;3.87;;
20241;SDS011;10279;46.388;8.116;2023-03-19T02:30:42;8.80;;;4.27;;
20241;SDS011;10279;46.388;8.116;2023-03-19T02:33:14;4.40;;;3.67;;
20241;SDS011;10279;46.388;8.116;2023-03-19T02:35:44;5.57;;;4.17;;
20241;SDS011;10279;46.388;8.116;2023-03-19T02:38:12;6.30;;;4.40;;
20241;SDS011;10279;46.388;8.116;2023-03-19T02:40:42;5.63;;;4.07;;
20241;SDS011;10279;46.388;8.116;2023-03-19T02:43:13;6.53;;;4.50;;
20241;SDS011;10279;46.388;8.116;2023-03-19T02:45:43;5.70;;;4.37;;
20241;SDS011;10279;46.388;8.116;2023-03-19T02:48:11;6.60;;;4.07;;
20241;SDS011;10279;46.388;8.116;2023-03-19T02:50:38;7.40;;;4.10;;
20241;SDS011;10279;46.388;8.116;2023-03-19T02:53:06;6.60;;;4.57;;
20241;SDS011;10279;46.388;8.116;2023-03-19T02:55:33;6.33;;;4.13;;
20241;SDS011;10279;46.388;8.116;2023-03-19T02:58:01;5.60;;;4.43;;
20241;SDS011;10279;46.388;8.116;2023-03-19T03:00:28;7.03;;;4.50;;
20241;SDS011;10279;46.388;8.116;2023-03-19T03:02:56;6.00;;;4.27;;
20241;SDS011;10279;46.388;8.116;2023-03-19T03:05:24;8.73;;;4.90;;
20241;SDS011;10279;46.388;8.116;2023-03-19T03:07:51;7.73;;;4.60;;
20241;SDS011;10279;46.388;8.116;2023-03-19T03:10:19;6.00;;;4.47;;
20241;SDS011;10279;46.388;8.116;2023-03-19T03:12:46;6.50;;;4.97;;
20241;SDS011;10279;46.388;8.116;2023-03-19T03:15:14;6.00;;;4.70;;
20241;SDS011;10279;46.388;8.116;2023-03-19T03:17:42;6.03;;;4.87;;
20241;SDS011;10279;46.388;8.116;2023-03-19T03:20:11;5.93;;;4.90;;
20241;SDS011;10279;46.388;8.116;2023-03-19T03:22:39;6.40;;;5.13;;
20241;SDS011;10279;46.388;8.116;2023-03-19T03:25:07;7.60;;;4.90;;
20241;SDS011;10279;46.388;8.116;2023-03-19T03:27:36;8.03;;;5.80;;
20241;SDS011;10279;46.388;8.116;2023-03-19T03:30:03;6.93;;;5.57;;
20241;SDS011;10279;46.388;8.116;2023-03-19T03:32:34;6.20;;;5.13;;
20241;SDS011;10279;46.388;8.116;2023-03-19T03:35:02;6.57;;;4.97;;
20241;SDS011;10279;46.388;8.116;2023-03-19T03:37:30;11.63;;;5.30;;
20241;SDS011;10279;46.388;8.116;2023-03-19T03:39:57;6.87;;;5.43;;
20241;SDS011;10279;46.388;8.116;2023-03-19T03:42:25;8.83;;;5.47;;
20241;SDS011;10279;46.388;8.116;2023-03-19T03:44:52;11.17;;;6.07;;
20241;SDS011;10279;46.388;8.116;2023-03-19T03:47:20;8.00;;;5.43;;
20241;SDS011;10279;46.388;8.116;2023-03-19T03:49:48;8.17;;;5.20;;
20241;SDS011;10279;46.388;8.116;2023-03-19T03:52:15;11.03;;;5.77;;
20241;SDS011;10279;46.388;8.116;2023-03-19T03:54:43;8.73;;;5.80;;
20241;SDS011;10279;46.388;8.116;2023-03-19T03:57:10;7.47;;;5.90;;
20241;SDS011;10279;46.388;8.116;2023-03-19T03:59:37;9.00;;;5.83;;
20241;SDS011;10279;46.388;8.116;2023-03-19T04:02:05;8.17;;;6.27;;
20241;SDS011;10279;46.388;8.116;2023-03-19T04:04:32;9.00;;;6.03;;
20241;SDS011;10279;46.388;8.116;2023-03-19T04:07:00;7.33;;;5.53;;
20241;SDS011;10279;46.388;8.116;2023-03-19T04:09:27;10.63;;;6.63;;
20241;SDS011;10279;46.388;8.116;2023-03-19T04:11:54;8.63;;;5.87;;
20241;SDS011;10279;46.388;8.116;2023-03-19T04:14:22;8.83;;;6.07;;
20241;SDS011;10279;46.388;8.116;2023-03-19T04:16:49;8.30;;;5.73;;
20241;SDS011;10279;46.388;8.116;2023-03-19T04:19:17;8.40;;;6.60;;
20241;SDS011;10279;46.388;8.116;2023-03-19T04:21:45;9.53;;;6.33;;
20241;SDS011;10279;46.388;8.116;2023-03-19T04:24:13;9.07;;;6.27;;
20241;SDS011;10279;46.388;8.116;2023-03-19T04:26:40;10.17;;;6.97;;
20241;SDS011;10279;46.388;8.116;2023-03-19T04:29:07;10.60;;;6.43;;
20241;SDS011;10279;46.388;8.116;2023-03-19T04:31:35;9.10;;;6.40;;
20241;SDS011;10279;46.388;8.116;2023-03-19T04:34:03;8.40;;;6.10;;
20241;SDS011;10279;46.388;8.116;2023-03-19T04:36:31;10.13;;;6.50;;
20241;SDS011;10279;46.388;8.116;2023-03-19T04:38:58;9.67;;;6.77;;
20241;SDS011;10279;46.388;8.116;2023-03-19T04:41:26;9.37;;;6.33;;
20241;SDS011;10279;46.388;8.116;2023-03-19T04:43:55;9.03;;;5.73;;
20241;SDS011;10279;46.388;8.116;2023-03-19T04:46:25;8.17;;;5.60;;
20241;SDS011;10279;46.388;8.116;2023-03-19T04:48:53;9.20;;;6.83;;
20241;SDS011;10279;46.388;8.116;2023-03-19T04:51:21;8.83;;;6.03;;
20241;SDS011;10279;46.388;8.116;2023-03-19T04:53:49;9.87;;;6.17;;
20241;SDS011;10279;46.388;8.116;2023-03-19T04:56:16;13.70;;;5.87;;
20241;SDS011;10279;46.388;8.116;2023-03-19T04:58:44;8.53;;;5.37;;
20241;SDS011;10279;46.388;8.116;2023-03-19T05:01:11;9.17;;;5.93;;
20241;SDS011;10279;46.388;8.116;2023-03-19T05:03:39;8.37;;;5.20;;
20241;SDS011;10279;46.388;8.116;2023-03-19T05:06:06;6.80;;;4.90;;
20241;SDS011;10279;46.388;8.116;2023-03-19T05:08:34;6.73;;;4.93;;
20241;SDS011;10279;46.388;8.116;2023-03-19T05:11:02;5.60;;;4.80;;
20241;SDS011;10279;46.388;8.116;2023-03-19T05:13:29;7.67;;;5.83;;
20241;SDS011;10279;46.388;8.116;2023-03-19T05:15:56;7.23;;;5.43;;
20241;SDS011;10279;46.388;8.116;2023-03-19T05:18:24;8.27;;;5.73;;
20241;SDS011;10279;46.388;8.116;2023-03-19T05:20:52;7.27;;;5.23;;
20241;SDS011;10279;46.388;8.116;2023-03-19T05:23:20;7.93;;;6.00;;
20241;SDS011;10279;46.388;8.116;2023-03-19T05:25:48;8.70;;;5.57;;
20241;SDS011;10279;46.388;8.116;2023-03-19T05:28:16;8.53;;;5.53;;
20241;SDS011;10279;46.388;8.116;2023-03-19T05:30:43;7.47;;;5.47;;
20241;SDS011;10279;46.388;8.116;2023-03-19T05:33:10;7.00;;;5.30;;
20241;SDS011;10279;46.388;8.116;2023-03-19T05:35:38;7.60;;;5.17;;
20241;SDS011;10279;46.388;8.116;2023-03-19T05:38:06;8.70;;;4.93;;
20241;SDS011;10279;46.388;8.116;2023-03-19T05:40:33;8.20;;;5.10;;
20241;SDS011;10279;46.388;8.116;2023-03-19T05:43:01;6.37;;;5.10;;
20241;SDS011;10279;46.388;8.116;2023-03-19T05:45:29;8.10;;;5.60;;
20241;SDS011;10279;46.388;8.116;2023-03-19T05:47:56;7.80;;;5.37;;
20241;SDS011;10279;46.388;8.116;2023-03-19T05:50:23;7.53;;;5.47;;
20241;SDS011;10279;46.388;8.116;2023-03-19T05:52:51;7.97;;;5.97;;
20241;SDS011;10279;46.388;8.116;2023-03-19T05:55:18;7.70;;;5.83;;
20241;SDS011;10279;46.388;8.116;2023-03-19T05:57:46;10.90;;;5.57;;
20241;SDS011;10279;46.388;8.116;2023-03-19T06:00:13;7.70;;;6.20;;
20241;SDS011;10279;46.388;8.116;2023-03-19T06:02:44;8.70;;;5.90;;
20241;SDS011;10279;46.388;8.116;2023-03-19T06:05:12;9.23;;;5.93;;
20241;SDS011;10279;46.388;8.116;2023-03-19T06:07:39;8.60;;;5.70;;
20241;SDS011;10279;46.388;8.116;2023-03-19T06:10:08;9.93;;;5.63;;
20241;SDS011;10279;46.388;8.116;2023-03-19T06:12:36;6.87;;;5.37;;
20241;SDS011;10279;46.388;8.116;2023-03-19T06:15:03;9.87;;;6.70;;
20241;SDS011;10279;46.388;8.116;2023-03-19T06:17:32;8.47;;;5.77;;
20241;SDS011;10279;46.388;8.116;2023-03-19T06:19:59;8.17;;;5.70;;
20241;SDS011;10279;46.388;8.116;2023-03-19T06:22:27;7.93;;;5.93;;
20241;SDS011;10279;46.388;8.116;2023-03-19T06:24:54;12.47;;;6.30;;
20241;SDS011;10279;46.388;8.116;2023-03-19T06:27:22;7.60;;;5.50;;
20241;SDS011;10279;46.388;8.116;2023-03-19T06:29:49;9.70;;;6.30;;
20241;SDS011;10279;46.388;8.116;2023-03-19T06:32:16;11.27;;;6.60;;
20241;SDS011;10279;46.388;8.116;2023-03-19T06:34:44;7.13;;;5.60;;
20241;SDS011;10279;46.388;8.116;2023-03-19T06:37:12;9.07;;;6.43;;
20241;SDS011;10279;46.388;8.116;2023-03-19T06:39:39;8.73;;;5.83;;
20241;SDS011;10279;46.388;8.116;2023-03-19T06:42:06;8.17;;;5.83;;
20241;SDS011;10279;46.388;8.116;2023-03-19T06:44:34;7.63;;;5.73;;
20241;SDS011;10279;46.388;8.116;2023-03-19T06:47:01;10.77;;;6.53;;
20241;SDS011;10279;46.388;8.116;2023-03-19T06:49:29;9.60;;;6.87;;
20241;SDS011;10279;46.388;8.116;2023-03-19T06:51:56;9.80;;;6.97;;
20241;SDS011;10279;46.388;8.116;2023-03-19T06:54:24;10.10;;;7.20;;
20241;SDS011;10279;46.388;8.116;2023-03-19T06:56:51;12.83;;;7.23;;
20241;SDS011;10279;46.388;8.116;2023-03-19T06:59:19;10.50;;;6.80;;
20241;SDS011;10279;46.388;8.116;2023-03-19T07:01:46;11.90;;;6.70;;
20241;SDS011;10279;46.388;8.116;2023-03-19T07:04:13;10.50;;;7.90;;
20241;SDS011;10279;46.388;8.116;2023-03-19T07:06:44;10.50;;;7.63;;
20241;SDS011;10279;46.388;8.116;2023-03-19T07:09:11;10.17;;;7.17;;
20241;SDS011;10279;46.388;8.116;2023-03-19T07:11:39;10.60;;;7.73;;
20241;SDS011;10279;46.388;8.116;2023-03-19T07:14:06;10.20;;;7.53;;
20241;SDS011;10279;46.388;8.116;2023-03-19T07:16:34;10.83;;;7.80;;
20241;SDS011;10279;46.388;8.116;2023-03-19T07:19:01;12.10;;;7.60;;
20241;SDS011;10279;46.388;8.116;2023-03-19T07:21:29;9.37;;;7.20;;
20241;SDS011;10279;46.388;8.116;2023-03-19T07:23:56;8.90;;;6.93;;
20241;SDS011;10279;46.388;8.116;2023-03-19T07:26:23;11.37;;;8.03;;
20241;SDS011;10279;46.388;8.116;2023-03-19T07:28:51;9.77;;;7.33;;
20241;SDS011;10279;46.388;8.116;2023-03-19T07:31:19;11.80;;;7.73;;
20241;SDS011;10279;46.388;8.116;2023-03-19T07:33:46;10.73;;;8.00;;
20241;SDS011;10279;46.388;8.116;2023-03-19T07:36:14;12.57;;;8.13;;
20241;SDS011;10279;46.388;8.116;2023-03-19T07:38:41;10.63;;;7.73;;
20241;SDS011;10279;46.388;8.116;2023-03-19T07:41:12;12.57;;;7.70;;
20241;SDS011;10279;46.388;8.116;2023-03-19T07:43:39;11.70;;;8.37;;
20241;SDS011;10279;46.388;8.116;2023-03-19T07:46:07;12.33;;;8.60;;
20241;SDS011;10279;46.388;8.116;2023-03-19T07:48:35;10.73;;;8.00;;
20241;SDS011;10279;46.388;8.116;2023-03-19T07:51:03;13.20;;;9.10;;
20241;SDS011;10279;46.388;8.116;2023-03-19T07:53:30;13.87;;;7.63;;
20241;SDS011;10279;46.388;8.116;2023-03-19T07:55:57;10.27;;;8.23;;
20241;SDS011;10279;46.388;8.116;2023-03-19T07:58:25;10.13;;;7.87;;
20241;SDS011;10279;46.388;8.116;2023-03-19T08:00:52;10.37;;;8.10;;
20241;SDS011;10279;46.388;8.116;2023-03-19T08:03:20;12.17;;;8.53;;
20241;SDS011;10279;46.388;8.116;2023-03-19T08:05:48;11.17;;;8.47;;
20241;SDS011;10279;46.388;8.116;2023-03-19T08:08:15;10.70;;;7.63;;
20241;SDS011;10279;46.388;8.116;2023-03-19T08:10:44;11.93;;;7.90;;
20241;SDS011;10279;46.388;8.116;2023-03-19T08:13:16;10.53;;;7.73;;
20241;SDS011;10279;46.388;8.116;2023-03-19T08:15:43;11.40;;;8.07;;
20241;SDS011;10279;46.388;8.116;2023-03-19T08:18:11;11.20;;;8.13;;
20241;SDS011;10279;46.388;8.116;2023-03-19T08:20:39;11.30;;;8.03;;
20241;SDS011;10279;46.388;8.116;2023-03-19T08:23:06;11.77;;;8.17;;
20241;SDS011;10279;46.388;8.116;2023-03-19T08:25:33;11.63;;;7.70;;
20241;SDS011;10279;46.388;8.116;2023-03-19T08:28:01;12.37;;;9.07;;
20241;SDS011;10279;46.388;8.116;2023-03-19T08:30:28;9.70;;;7.83;;
20241;SDS011;10279;46.388;8.116;2023-03-19T08:32:57;10.53;;;8.03;;
20241;SDS011;10279;46.388;8.116;2023-03-19T08:35:25;10.77;;;8.83;;
20241;SDS011;10279;46.388;8.116;2023-03-19T08:37:53;11.17;;;8.43;;
20241;SDS011;10279;46.388;8.116;2023-03-19T08:40:20;10.20;;;8.07;;
20241;SDS011;10279;46.388;8.116;2023-03-19T08:42:48;13.17;;;8.10;;
20241;SDS011;10279;46.388;8.116;2023-03-19T08:45:16;11.90;;;8.87;;
20241;SDS011;10279;46.388;8.116;2023-03-19T08:47:43;12.73;;;8.87;;
20241;SDS011;10279;46.388;8.116;2023-03-19T08:50:11;11.73;;;9.20;;
20241;SDS011;10279;46.388;8.116;2023-03-19T08:52:38;9.80;;;7.93;;
20241;SDS011;10279;46.388;8.116;2023-03-19T08:55:06;12.27;;;9.13;;
20241;SDS011;10279;46.388;8.116;2023-03-19T08:57:35;12.13;;;8.87;;
20241;SDS011;10279;46.388;8.116;2023-03-19T09:00:03;15.17;;;9.27;;
20241;SDS011;10279;46.388;8.116;2023-03-19T09:02:31;12.23;;;8.63;;
20241;SDS011;10279;46.388;8.116;2023-03-19T09:04:58;12.27;;;8.70;;
20241;SDS011;10279;46.388;8.116;2023-03-19T09:07:25;12.57;;;10.33;;
20241;SDS011;10279;46.388;8.116;2023-03-19T09:09:53;10.97;;;8.67;;
20241;SDS011;10279;46.388;8.116;2023-03-19T09:12:20;13.20;;;9.03;;
20241;SDS011;10279;46.388;8.116;2023-03-19T09:14:48;10.20;;;8.67;;
20241;SDS011;10279;46.388;8.116;2023-03-19T09:17:15;12.43;;;9.03;;
20241;SDS011;10279;46.388;8.116;2023-03-19T09:19:43;13.33;;;9.43;;
20241;SDS011;10279;46.388;8.116;2023-03-19T09:22:10;11.90;;;8.33;;
20241;SDS011;10279;46.388;8.116;2023-03-19T09:24:38;12.43;;;8.20;;
20241;SDS011;10279;46.388;8.116;2023-03-19T09:27:06;11.30;;;8.33;;
20241;SDS011;10279;46.388;8.116;2023-03-19T09:29:33;11.47;;;8.97;;
20241;SDS011;10279;46.388;8.116;2023-03-19T09:32:01;11.40;;;8.93;;
20241;SDS011;10279;46.388;8.116;2023-03-19T09:34:28;11.17;;;8.60;;
20241;SDS011;10279;46.388;8.116;2023-03-19T09:36:56;12.80;;;8.73;;
20241;SDS011;10279;46.388;8.116;2023-03-19T09:39:23;13.53;;;9.27;;
20241;SDS011;10279;46.388;8.116;2023-03-19T09:44:29;12.80;;;9.93;;
20241;SDS011;10279;46.388;8.116;2023-03-19T09:49:55;12.73;;;9.17;;
20241;SDS011;10279;46.388;8.116;2023-03-19T09:54:55;13.37;;;9.60;;
20241;SDS011;10279;46.388;8.116;2023-03-19T09:57:23;14.27;;;8.53;;
20241;SDS011;10279;46.388;8.116;2023-03-19T09:59:51;12.60;;;9.40;;
20241;SDS011;10279;46.388;8.116;2023-03-19T10:02:25;12.50;;;8.97;;
20241;SDS011;10279;46.388;8.116;2023-03-19T10:10:05;13.33;;;8.90;;
20241;SDS011;10279;46.388;8.116;2023-03-19T10:15:20;10.73;;;9.40;;
20241;SDS011;10279;46.388;8.116;2023-03-19T10:25:37;14.10;;;9.33;;
20241;SDS011;10279;46.388;8.116;2023-03-19T10:28:13;12.07;;;8.43;;
20241;SDS011;10279;46.388;8.116;2023-03-19T10:30:43;10.90;;;8.90;;
20241;SDS011;10279;46.388;8.116;2023-03-19T10:33:21;11.87;;;9.40;;
20241;SDS011;10279;46.388;8.116;2023-03-19T10:35:55;14.33;;;9.50;;
20241;SDS011;10279;46.388;8.116;2023-03-19T10:38:24;14.97;;;10.60;;
20241;SDS011;10279;46.388;8.116;2023-03-19T10:41:10;14.67;;;10.37;;
20241;SDS011;10279;46.388;8.116;2023-03-19T10:43:42;15.23;;;10.57;;
20241;SDS011;10279;46.388;8.116;2023-03-19T10:46:11;14.73;;;10.50;;
20241;SDS011;10279;46.388;8.116;2023-03-19T10:48:44;15.83;;;10.47;;
20241;SDS011;10279;46.388;8.116;2023-03-19T10:51:13;15.73;;;10.47;;
20241;SDS011;10279;46.388;8.116;2023-03-19T10:53:41;15.30;;;11.03;;
20241;SDS011;10279;46.388;8.116;2023-03-19T10:58:42;19.03;;;10.53;;
20241;SDS011;10279;46.388;8.116;2023-03-19T11:01:21;17.40;;;10.77;;
20241;SDS011;10279;46.388;8.116;2023-03-19T11:03:56;18.43;;;11.27;;
20241;SDS011;10279;46.388;8.116;2023-03-19T11:06:31;14.67;;;10.37;;
20241;SDS011;10279;46.388;8.116;2023-03-19T11:09:00;17.33;;;10.53;;
20241;SDS011;10279;46.388;8.116;2023-03-19T11:14:04;15.07;;;10.20;;
20241;SDS011;10279;46.388;8.116;2023-03-19T11:16:44;16.90;;;10.83;;
20241;SDS011;10279;46.388;8.116;2023-03-19T11:19:20;19.20;;;11.23;;
20241;SDS011;10279;46.388;8.116;2023-03-19T11:24:31;15.43;;;10.13;;
20241;SDS011;10279;46.388;8.116;2023-03-19T11:26:59;13.63;;;9.63;;
20241;SDS011;10279;46.388;8.116;2023-03-19T11:29:28;16.17;;;9.67;;
20241;SDS011;10279;46.388;8.116;2023-03-19T11:37:32;16.73;;;10.60;;
20241;SDS011;10279;46.388;8.116;2023-03-19T11:47:37;14.87;;;10.00;;
20241;SDS011;10279;46.388;8.116;2023-03-19T11:55:24;14.00;;;9.73;;
20241;SDS011;10279;46.388;8.116;2023-03-19T12:00:46;16.83;;;10.67;;
20241;SDS011;10279;46.388;8.116;2023-03-19T12:08:41;16.70;;;10.07;;
20241;SDS011;10279;46.388;8.116;2023-03-19T12:21:37;14.20;;;8.83;;
20241;SDS011;10279;46.388;8.116;2023-03-19T12:24:18;10.23;;;7.87;;
20241;SDS011;10279;46.388;8.116;2023-03-19T12:29:36;8.80;;;6.97;;
20241;SDS011;10279;46.388;8.116;2023-03-19T12:32:25;10.30;;;7.00;;
20241;SDS011;10279;46.388;8.116;2023-03-19T12:34:56;8.57;;;6.20;;
20241;SDS011;10279;46.388;8.116;2023-03-19T12:40:06;10.10;;;7.03;;
20241;SDS011;10279;46.388;8.116;2023-03-19T12:42:40;9.77;;;6.50;;
20241;SDS011;10279;46.388;8.116;2023-03-19T12:45:23;11.13;;;7.33;;
20241;SDS011;10279;46.388;8.116;2023-03-19T12:47:54;7.50;;;6.40;;
20241;SDS011;10279;46.388;8.116;2023-03-19T12:50:23;10.97;;;6.70;;
20241;SDS011;10279;46.388;8.116;2023-03-19T12:52:53;10.37;;;6.63;;
20241;SDS011;10279;46.388;8.116;2023-03-19T13:00:53;9.93;;;6.17;;
20241;SDS011;10279;46.388;8.116;2023-03-19T13:06:19;9.97;;;7.27;;
20241;SDS011;10279;46.388;8.116;2023-03-19T13:19:09;10.93;;;7.50;;
20241;SDS011;10279;46.388;8.116;2023-03-19T13:21:40;10.80;;;7.77;;
20241;SDS011;10279;46.388;8.116;2023-03-19T13:26:44;8.53;;;6.00;;
20241;SDS011;10279;46.388;8.116;2023-03-19T13:31:42;7.80;;;6.77;;
20241;SDS011;10279;46.388;8.116;2023-03-19T13:34:19;6.97;;;5.93;;
20241;SDS011;10279;46.388;8.116;2023-03-19T13:39:23;7.17;;;5.80;;
20241;SDS011;10279;46.388;8.116;2023-03-19T13:45:25;7.73;;;5.43;;
20241;SDS011;10279;46.388;8.116;2023-03-19T13:55:18;8.07;;;5.73;;
20241;SDS011;10279;46.388;8.116;2023-03-19T13:57:52;7.10;;;5.73;;
20241;SDS011;10279;46.388;8.116;2023-03-19T14:03:17;7.43;;;5.57;;
20241;SDS011;10279;46.388;8.116;2023-03-19T14:05:47;8.27;;;6.80;;
20241;SDS011;10279;46.388;8.116;2023-03-19T14:08:17;11.43;;;7.53;;
20241;SDS011;10279;46.388;8.116;2023-03-19T14:10:49;11.73;;;7.10;;
20241;SDS011;10279;46.388;8.116;2023-03-19T14:13:41;9.20;;;7.47;;
20241;SDS011;10279;46.388;8.116;2023-03-19T14:16:14;8.97;;;6.53;;
20241;SDS011;10279;46.388;8.116;2023-03-19T14:18:42;7.63;;;6.30;;
20241;SDS011;10279;46.388;8.116;2023-03-19T14:21:32;9.23;;;7.03;;
20241;SDS011;10279;46.388;8.116;2023-03-19T14:27:12;7.57;;;5.77;;
20241;SDS011;10279;46.388;8.116;2023-03-19T14:29:41;8.83;;;6.23;;
20241;SDS011;10279;46.388;8.116;2023-03-19T14:32:12;9.90;;;6.63;;
20241;SDS011;10279;46.388;8.116;2023-03-19T14:34:43;9.03;;;6.07;;
20241;SDS011;10279;46.388;8.116;2023-03-19T14:39:42;8.23;;;6.50;;
20241;SDS011;10279;46.388;8.116;2023-03-19T14:42:17;8.83;;;6.93;;
20241;SDS011;10279;46.388;8.116;2023-03-19T14:52:57;10.70;;;7.30;;
20241;SDS011;10279;46.388;8.116;2023-03-19T14:55:33;11.80;;;7.70;;
20241;SDS011;10279;46.388;8.116;2023-03-19T14:58:01;9.10;;;7.47;;
20241;SDS011;10279;46.388;8.116;2023-03-19T15:00:36;10.20;;;6.93;;
20241;SDS011;10279;46.388;8.116;2023-03-19T15:03:04;9.60;;;7.47;;
20241;SDS011;10279;46.388;8.116;2023-03-19T15:05:39;9.60;;;7.27;;
20241;SDS011;10279;46.388;8.116;2023-03-19T15:08:09;9.60;;;7.40;;
20241;SDS011;10279;46.388;8.116;2023-03-19T15:18:28;12.60;;;7.33;;
20241;SDS011;10279;46.388;8.116;2023-03-19T15:20:56;10.40;;;7.47;;
20241;SDS011;10279;46.388;8.116;2023-03-19T15:23:24;9.23;;;7.67;;
20241;SDS011;10279;46.388;8.116;2023-03-19T15:26:00;10.30;;;7.77;;
20241;SDS011;10279;46.388;8.116;2023-03-19T15:28:32;10.03;;;8.20;;
20241;SDS011;10279;46.388;8.116;2023-03-19T15:31:04;9.30;;;8.30;;
20241;SDS011;10279;46.388;8.116;2023-03-19T15:33:51;10.87;;;7.90;;
20241;SDS011;10279;46.388;8.116;2023-03-19T15:36:23;9.27;;;7.50;;
20241;SDS011;10279;46.388;8.116;2023-03-19T15:38:53;10.40;;;7.67;;
20241;SDS011;10279;46.388;8.116;2023-03-19T15:41:25;11.03;;;7.30;;
20241;SDS011;10279;46.388;8.116;2023-03-19T15:43:54;9.70;;;7.73;;
20241;SDS011;10279;46.388;8.116;2023-03-19T15:46:23;11.23;;;9.07;;
20241;SDS011;10279;46.388;8.116;2023-03-19T15:48:53;9.73;;;8.13;;
20241;SDS011;10279;46.388;8.116;2023-03-19T15:51:23;12.23;;;7.80;;
20241;SDS011;10279;46.388;8.116;2023-03-19T15:53:52;11.60;;;7.70;;
20241;SDS011;10279;46.388;8.116;2023-03-19T15:56:20;12.33;;;9.03;;
20241;SDS011;10279;46.388;8.116;2023-03-19T15:58:49;8.70;;;7.47;;
20241;SDS011;10279;46.388;8.116;2023-03-19T16:01:18;10.90;;;8.20;;
20241;SDS011;10279;46.388;8.116;2023-03-19T16:03:52;10.00;;;8.20;;
20241;SDS011;10279;46.388;8.116;2023-03-19T16:06:22;10.57;;;8.03;;
20241;SDS011;10279;46.388;8.116;2023-03-19T16:08:53;9.33;;;8.17;;
20241;SDS011;10279;46.388;8.116;2023-03-19T16:11:28;10.47;;;7.23;;
20241;SDS011;10279;46.388;8.116;2023-03-19T16:13:56;10.87;;;7.90;;
20241;SDS011;10279;46.388;8.116;2023-03-19T16:16:27;9.47;;;7.83;;
20241;SDS011;10279;46.388;8.116;2023-03-19T16:18:55;10.67;;;7.27;;
20241;SDS011;10279;46.388;8.116;2023-03-19T16:24:01;8.03;;;6.67;;
20241;SDS011;10279;46.388;8.116;2023-03-19T16:26:35;9.63;;;7.07;;
20241;SDS011;10279;46.388;8.116;2023-03-19T16:29:05;8.57;;;7.43;;
20241;SDS011;10279;46.388;8.116;2023-03-19T16:31:40;8.67;;;7.10;;
20241;SDS011;10279;46.388;8.116;2023-03-19T16:34:24;8.30;;;6.17;;
20241;SDS011;10279;46.388;8.116;2023-03-19T16:36:54;8.77;;;7.03;;
20241;SDS011;10279;46.388;8.116;2023-03-19T16:44:37;10.17;;;7.60;;
20241;SDS011;10279;46.388;8.116;2023-03-19T16:47:09;9.73;;;7.20;;
20241;SDS011;10279;46.388;8.116;2023-03-19T16:49:37;7.83;;;6.97;;
20241;SDS011;10279;46.388;8.116;2023-03-19T16:52:04;8.30;;;6.27;;
20241;SDS011;10279;46.388;8.116;2023-03-19T16:54:32;8.10;;;7.23;;
20241;SDS011;10279;46.388;8.116;2023-03-19T16:56:59;9.20;;;6.60;;
20241;SDS011;10279;46.388;8.116;2023-03-19T16:59:28;8.60;;;7.37;;
20241;SDS011;10279;46.388;8.116;2023-03-19T17:01:56;9.43;;;7.03;;
20241;SDS011;10279;46.388;8.116;2023-03-19T17:04:23;9.17;;;7.13;;
20241;SDS011;10279;46.388;8.116;2023-03-19T17:06:51;9.27;;;7.37;;
20241;SDS011;10279;46.388;8.116;2023-03-19T17:09:22;9.20;;;7.07;;
20241;SDS011;10279;46.388;8.116;2023-03-19T17:11:49;8.50;;;7.47;;
20241;SDS011;10279;46.388;8.116;2023-03-19T17:14:19;7.80;;;6.77;;
20241;SDS011;10279;46.388;8.116;2023-03-19T17:16:47;11.17;;;6.87;;
20241;SDS011;10279;46.388;8.116;2023-03-19T17:19:20;9.57;;;7.63;;
20241;SDS011;10279;46.388;8.116;2023-03-19T17:21:53;8.60;;;6.77;;
20241;SDS011;10279;46.388;8.116;2023-03-19T17:24:27;8.40;;;7.40;;
20241;SDS011;10279;46.388;8.116;2023-03-19T17:26:56;9.03;;;7.87;;